createdAt,value
2018-10-07T00:00:47.660Z,0.00
2018-10-07T00:01:47.735Z,0.00
2018-10-07T00:02:47.714Z,0.00
2018-10-07T00:03:47.745Z,0.00
2018-10-07T00:04:47.770Z,0.00
2018-10-07T00:05:47.797Z,0.00
2018-10-07T00:06:47.824Z,0.00
2018-10-07T00:07:47.854Z,0.00
2018-10-07T00:08:47.884Z,0.00
2018-10-07T00:09:47.912Z,0.00
2018-10-07T00:10:47.941Z,0.00
2018-10-07T00:11:47.968Z,0.00
2018-10-07T00:12:47.996Z,0.00
2018-10-07T00:13:48.021Z,0.00
2018-10-07T00:14:48.053Z,0.00
2018-10-07T00:15:48.078Z,0.00
2018-10-07T00:16:48.110Z,0.00
2018-10-07T00:17:48.133Z,0.00
2018-10-07T00:18:48.161Z,0.00
2018-10-07T00:19:48.190Z,0.00
2018-10-07T00:20:48.221Z,0.00
2018-10-07T00:21:48.245Z,0.00
2018-10-07T00:22:48.277Z,0.00
2018-10-07T00:23:48.304Z,0.00
2018-10-07T00:24:48.330Z,0.00
2018-10-07T00:25:48.357Z,0.00
2018-10-07T00:26:48.388Z,0.00
2018-10-07T00:27:48.417Z,0.00
2018-10-07T00:28:48.443Z,0.00
2018-10-07T00:29:48.472Z,0.00
2018-10-07T00:30:48.498Z,0.00
2018-10-07T00:31:48.524Z,0.00
2018-10-07T00:32:48.555Z,0.00
2018-10-07T00:33:48.584Z,0.00
2018-10-07T00:34:48.609Z,0.00
2018-10-07T00:35:48.637Z,0.00
2018-10-07T00:36:48.665Z,0.00
2018-10-07T00:37:48.692Z,0.00
2018-10-07T00:38:48.723Z,0.00
2018-10-07T00:39:48.751Z,0.00
2018-10-07T00:40:48.777Z,0.00
2018-10-07T00:41:48.808Z,0.00
2018-10-07T00:42:48.835Z,0.00
2018-10-07T00:43:48.864Z,0.00
2018-10-07T00:44:48.891Z,0.00
2018-10-07T00:45:48.916Z,0.00
2018-10-07T00:46:48.947Z,0.00
2018-10-07T00:47:48.977Z,0.00
2018-10-07T00:48:49.004Z,0.00
2018-10-07T00:49:49.033Z,0.00
2018-10-07T00:50:49.059Z,0.00
2018-10-07T00:51:49.086Z,0.00
2018-10-07T00:52:49.113Z,0.00
2018-10-07T00:53:49.141Z,0.00
2018-10-07T00:54:49.172Z,0.00
2018-10-07T00:55:49.197Z,0.00
2018-10-07T00:56:49.228Z,0.00
2018-10-07T00:57:49.254Z,0.00
2018-10-07T00:58:49.280Z,0.00
2018-10-07T00:59:49.314Z,0.00
2018-10-07T01:00:49.338Z,0.00
2018-10-07T01:01:49.368Z,0.00
2018-10-07T01:02:49.393Z,0.00
2018-10-07T01:03:49.418Z,0.00
2018-10-07T01:04:49.447Z,0.00
2018-10-07T01:05:49.480Z,0.00
2018-10-07T01:06:49.503Z,0.00
2018-10-07T01:07:49.533Z,0.00
2018-10-07T01:08:49.558Z,0.00
2018-10-07T01:09:49.595Z,0.00
2018-10-07T01:10:49.616Z,0.00
2018-10-07T01:11:49.650Z,0.00
2018-10-07T01:12:49.673Z,0.00
2018-10-07T01:13:49.700Z,0.00
2018-10-07T01:14:49.725Z,0.00
2018-10-07T01:15:49.752Z,0.00
2018-10-07T01:16:49.782Z,0.00
2018-10-07T01:17:49.808Z,0.00
2018-10-07T01:18:49.839Z,0.00
2018-10-07T01:19:49.867Z,0.00
2018-10-07T01:20:49.895Z,0.00
2018-10-07T01:21:49.922Z,0.00
2018-10-07T01:22:49.950Z,0.00
2018-10-07T01:23:49.976Z,0.00
2018-10-07T01:24:50.007Z,0.00
2018-10-07T01:25:50.034Z,0.00
2018-10-07T01:26:50.062Z,0.00
2018-10-07T01:27:50.092Z,0.00
2018-10-07T01:28:50.116Z,0.00
2018-10-07T01:29:50.146Z,0.00
2018-10-07T01:30:50.173Z,0.00
2018-10-07T01:31:50.199Z,0.00
2018-10-07T01:32:50.227Z,0.00
2018-10-07T01:33:50.256Z,0.00
2018-10-07T01:34:50.283Z,0.00
2018-10-07T01:35:50.311Z,0.00
2018-10-07T01:36:50.341Z,0.00
2018-10-07T01:37:50.366Z,0.00
2018-10-07T01:38:50.401Z,0.00
2018-10-07T01:39:50.423Z,0.00
2018-10-07T01:40:50.451Z,0.00
2018-10-07T01:41:50.479Z,0.00
2018-10-07T01:42:50.506Z,0.00
2018-10-07T01:43:50.534Z,0.00
2018-10-07T01:44:50.565Z,0.00
2018-10-07T01:45:50.592Z,0.00
2018-10-07T01:46:50.622Z,0.00
2018-10-07T01:47:50.647Z,0.00
2018-10-07T01:48:50.674Z,0.00
2018-10-07T01:49:50.701Z,0.00
2018-10-07T01:50:50.731Z,0.00
2018-10-07T01:51:50.759Z,0.00
2018-10-07T01:52:50.788Z,0.00
2018-10-07T01:53:50.814Z,0.00
2018-10-07T01:54:50.841Z,0.00
2018-10-07T01:55:50.871Z,0.00
2018-10-07T01:56:50.897Z,0.00
2018-10-07T01:57:50.928Z,0.00
2018-10-07T01:58:50.954Z,0.00
2018-10-07T01:59:50.980Z,0.00
2018-10-07T02:00:51.011Z,0.00
2018-10-07T02:01:51.035Z,0.00
2018-10-07T02:02:51.066Z,0.00
2018-10-07T02:03:51.095Z,0.00
2018-10-07T02:04:51.124Z,0.00
2018-10-07T02:05:51.149Z,0.00
2018-10-07T02:06:51.175Z,0.00
2018-10-07T02:07:51.206Z,0.00
2018-10-07T02:08:51.234Z,0.00
2018-10-07T02:09:51.259Z,0.00
2018-10-07T02:10:51.290Z,0.00
2018-10-07T02:11:51.317Z,0.00
2018-10-07T02:12:51.342Z,0.00
2018-10-07T02:13:51.384Z,0.00
2018-10-07T02:14:51.400Z,0.00
2018-10-07T02:15:51.426Z,0.00
2018-10-07T02:16:51.456Z,0.00
2018-10-07T02:17:51.485Z,0.00
2018-10-07T02:18:51.511Z,0.00
2018-10-07T02:19:51.539Z,0.00
2018-10-07T02:20:51.569Z,0.00
2018-10-07T02:21:51.592Z,0.00
2018-10-07T02:22:51.623Z,0.00
2018-10-07T02:23:51.650Z,0.00
2018-10-07T02:24:51.677Z,0.00
2018-10-07T02:25:51.703Z,0.00
2018-10-07T02:26:51.731Z,0.00
2018-10-07T02:27:51.761Z,0.00
2018-10-07T02:28:51.790Z,0.00
2018-10-07T02:29:51.814Z,0.00
2018-10-07T02:30:51.843Z,0.00
2018-10-07T02:31:51.871Z,0.00
2018-10-07T02:32:51.898Z,0.00
2018-10-07T02:33:51.925Z,0.00
2018-10-07T02:34:51.961Z,0.00
2018-10-07T02:35:51.983Z,0.00
2018-10-07T02:36:52.012Z,0.00
2018-10-07T02:37:52.038Z,0.00
2018-10-07T02:38:52.064Z,0.00
2018-10-07T02:39:52.094Z,0.00
2018-10-07T02:40:52.120Z,0.00
2018-10-07T02:41:52.150Z,0.00
2018-10-07T02:42:52.175Z,0.00
2018-10-07T02:43:52.205Z,0.00
2018-10-07T02:44:52.232Z,0.00
2018-10-07T02:45:52.259Z,0.00
2018-10-07T02:46:52.287Z,0.00
2018-10-07T02:47:52.324Z,0.00
2018-10-07T02:48:52.342Z,0.00
2018-10-07T02:49:52.371Z,0.00
2018-10-07T02:50:52.397Z,0.00
2018-10-07T02:51:52.422Z,0.00
2018-10-07T02:52:52.452Z,0.00
2018-10-07T02:53:52.479Z,0.00
2018-10-07T02:54:52.506Z,0.00
2018-10-07T02:55:52.532Z,0.00
2018-10-07T02:56:52.560Z,0.00
2018-10-07T02:57:52.592Z,0.00
2018-10-07T02:58:52.617Z,0.00
2018-10-07T02:59:52.645Z,0.00
2018-10-07T03:00:52.671Z,0.00
2018-10-07T03:01:52.699Z,0.00
2018-10-07T03:02:52.726Z,0.00
2018-10-07T03:03:52.754Z,0.00
2018-10-07T03:04:52.782Z,0.00
2018-10-07T03:05:52.807Z,0.00
2018-10-07T03:06:52.833Z,0.00
2018-10-07T03:07:52.866Z,0.00
2018-10-07T03:08:52.888Z,0.00
2018-10-07T03:09:52.919Z,0.00
2018-10-07T03:10:52.945Z,0.00
2018-10-07T03:11:52.968Z,0.00
2018-10-07T03:12:52.997Z,0.00
2018-10-07T03:13:53.026Z,0.00
2018-10-07T03:14:53.054Z,0.00
2018-10-07T03:15:53.078Z,0.00
2018-10-07T03:16:53.108Z,0.00
2018-10-07T03:17:53.135Z,0.00
2018-10-07T03:18:53.162Z,0.00
2018-10-07T03:19:53.190Z,0.00
2018-10-07T03:20:53.217Z,0.00
2018-10-07T03:21:53.245Z,0.00
2018-10-07T03:22:53.269Z,0.00
2018-10-07T03:23:53.296Z,0.00
2018-10-07T03:24:53.323Z,0.00
2018-10-07T03:25:53.352Z,0.00
2018-10-07T03:26:53.379Z,0.00
2018-10-07T03:27:53.405Z,0.00
2018-10-07T03:28:53.432Z,0.00
2018-10-07T03:29:53.457Z,0.00
2018-10-07T03:30:53.486Z,0.00
2018-10-07T03:31:53.514Z,0.00
2018-10-07T03:32:53.543Z,0.00
2018-10-07T03:33:53.570Z,0.00
2018-10-07T03:34:53.597Z,0.00
2018-10-07T03:35:53.623Z,0.00
2018-10-07T03:36:53.651Z,0.00
2018-10-07T03:37:53.677Z,0.00
2018-10-07T03:38:53.704Z,0.00
2018-10-07T03:39:53.730Z,0.00
2018-10-07T03:41:36.305Z,0.00
2018-10-07T03:42:36.330Z,0.00
2018-10-07T03:43:36.358Z,0.00
2018-10-07T03:44:36.383Z,0.00
2018-10-07T03:45:36.410Z,0.00
2018-10-07T03:46:36.452Z,0.00
2018-10-07T03:47:36.463Z,0.00
2018-10-07T03:48:36.493Z,0.00
2018-10-07T03:49:36.522Z,0.00
2018-10-07T03:50:36.547Z,0.00
2018-10-07T03:51:36.572Z,0.00
2018-10-07T03:52:36.600Z,0.00
2018-10-07T03:53:36.628Z,0.00
2018-10-07T03:54:36.688Z,0.00
2018-10-07T03:55:36.682Z,0.00
2018-10-07T03:56:36.708Z,0.00
2018-10-07T03:57:36.735Z,0.00
2018-10-07T03:58:36.761Z,0.00
2018-10-07T03:59:36.790Z,0.00
2018-10-07T04:00:36.814Z,0.00
2018-10-07T04:01:36.841Z,0.00
2018-10-07T04:02:36.870Z,0.00
2018-10-07T04:03:36.897Z,0.00
2018-10-07T04:04:36.920Z,0.00
2018-10-07T04:05:36.950Z,0.00
2018-10-07T04:06:36.981Z,0.00
2018-10-07T04:07:37.003Z,0.00
2018-10-07T04:08:37.030Z,0.00
2018-10-07T04:09:37.055Z,0.00
2018-10-07T04:10:37.084Z,0.00
2018-10-07T04:11:37.111Z,0.00
2018-10-07T04:12:37.140Z,0.00
2018-10-07T04:13:37.164Z,0.00
2018-10-07T04:14:37.195Z,0.00
2018-10-07T04:15:37.219Z,0.00
2018-10-07T04:16:37.245Z,0.00
2018-10-07T04:17:37.269Z,0.00
2018-10-07T04:18:37.312Z,0.00
2018-10-07T04:19:37.323Z,0.00
2018-10-07T04:20:37.350Z,0.00
2018-10-07T04:21:37.378Z,0.00
2018-10-07T04:22:37.403Z,0.00
2018-10-07T04:23:37.437Z,0.00
2018-10-07T04:24:40.080Z,0.00
2018-10-07T04:25:37.485Z,0.00
2018-10-07T04:26:37.512Z,0.00
2018-10-07T04:27:37.542Z,0.00
2018-10-07T04:28:37.563Z,0.00
2018-10-07T04:29:37.595Z,0.00
2018-10-07T04:30:37.617Z,0.00
2018-10-07T04:31:37.644Z,0.00
2018-10-07T04:32:37.671Z,0.00
2018-10-07T04:33:37.695Z,0.00
2018-10-07T04:34:37.726Z,0.00
2018-10-07T04:35:37.756Z,0.00
2018-10-07T04:36:37.778Z,0.00
2018-10-07T04:37:37.803Z,0.00
2018-10-07T04:38:37.830Z,0.00
2018-10-07T04:39:37.864Z,0.00
2018-10-07T04:40:37.882Z,0.00
2018-10-07T04:41:37.910Z,0.00
2018-10-07T04:42:37.941Z,0.00
2018-10-07T04:43:37.965Z,0.00
2018-10-07T04:44:37.994Z,0.00
2018-10-07T04:45:38.016Z,0.00
2018-10-07T04:46:38.043Z,0.00
2018-10-07T04:47:38.073Z,0.00
2018-10-07T04:48:38.095Z,0.00
2018-10-07T04:49:38.125Z,0.00
2018-10-07T04:50:38.152Z,0.00
2018-10-07T04:51:38.179Z,0.00
2018-10-07T04:52:38.202Z,0.00
2018-10-07T04:53:38.230Z,0.00
2018-10-07T04:54:38.256Z,0.00
2018-10-07T04:55:38.284Z,0.00
2018-10-07T04:56:38.311Z,0.00
2018-10-07T04:57:38.338Z,0.00
2018-10-07T04:58:38.362Z,0.00
2018-10-07T04:59:38.391Z,0.00
2018-10-07T05:00:38.415Z,0.00
2018-10-07T05:01:38.442Z,0.00
2018-10-07T05:02:38.470Z,0.00
2018-10-07T05:03:38.495Z,0.00
2018-10-07T05:04:38.522Z,0.00
2018-10-07T05:05:38.550Z,0.00
2018-10-07T05:06:38.576Z,0.00
2018-10-07T05:07:38.603Z,0.00
2018-10-07T05:08:38.625Z,0.00
2018-10-07T05:09:38.656Z,0.00
2018-10-07T05:10:38.684Z,0.00
2018-10-07T05:11:38.708Z,0.00
2018-10-07T05:12:38.797Z,0.00
2018-10-07T05:13:38.760Z,0.00
2018-10-07T05:14:38.788Z,0.00
2018-10-07T05:15:38.813Z,0.00
2018-10-07T05:16:38.843Z,0.00
2018-10-07T05:17:38.865Z,0.00
2018-10-07T05:18:38.892Z,0.00
2018-10-07T05:19:38.918Z,0.00
2018-10-07T05:20:38.948Z,0.00
2018-10-07T05:21:38.973Z,0.00
2018-10-07T05:22:39.000Z,0.00
2018-10-07T05:23:39.029Z,0.00
2018-10-07T05:24:39.053Z,0.00
2018-10-07T05:25:39.079Z,0.00
2018-10-07T05:26:39.113Z,0.00
2018-10-07T05:27:39.130Z,0.00
2018-10-07T05:28:39.156Z,0.00
2018-10-07T05:29:39.183Z,0.00
2018-10-07T05:30:39.211Z,0.00
2018-10-07T05:31:39.236Z,0.00
2018-10-07T05:32:39.264Z,0.00
2018-10-07T05:33:39.288Z,0.00
2018-10-07T05:34:39.317Z,0.00
2018-10-07T05:35:39.341Z,0.00
2018-10-07T05:36:39.367Z,0.00
2018-10-07T05:37:39.398Z,0.00
2018-10-07T05:38:39.422Z,0.00
2018-10-07T05:39:39.452Z,0.00
2018-10-07T05:40:39.472Z,0.00
2018-10-07T05:41:39.500Z,0.00
2018-10-07T05:42:39.546Z,0.00
2018-10-07T05:43:39.553Z,0.00
2018-10-07T05:44:39.638Z,0.00
2018-10-07T05:45:39.611Z,0.00
2018-10-07T05:46:39.633Z,5.63
2018-10-07T05:47:39.659Z,5.63
2018-10-07T05:48:39.687Z,5.63
2018-10-07T05:49:39.716Z,5.63
2018-10-07T05:50:39.742Z,5.63
2018-10-07T05:51:39.765Z,11.25
2018-10-07T05:52:39.793Z,11.25
2018-10-07T05:53:39.820Z,11.25
2018-10-07T05:54:39.846Z,11.25
2018-10-07T05:55:39.942Z,11.25
2018-10-07T05:56:39.902Z,11.25
2018-10-07T05:57:39.924Z,11.25
2018-10-07T05:58:39.950Z,16.88
2018-10-07T05:59:39.977Z,16.88
2018-10-07T06:00:40.004Z,16.88
2018-10-07T06:01:40.109Z,16.88
2018-10-07T06:02:40.058Z,22.50
2018-10-07T06:03:40.087Z,22.50
2018-10-07T06:04:40.115Z,28.13
2018-10-07T06:05:40.140Z,28.13
2018-10-07T06:06:40.161Z,33.75
2018-10-07T06:07:40.190Z,33.75
2018-10-07T06:08:40.216Z,39.38
2018-10-07T06:09:40.247Z,39.38
2018-10-07T06:10:40.269Z,45.00
2018-10-07T06:11:40.294Z,45.00
2018-10-07T06:12:40.320Z,45.00
2018-10-07T06:13:40.348Z,50.63
2018-10-07T06:14:40.382Z,56.25
2018-10-07T06:15:40.399Z,56.25
2018-10-07T06:16:40.423Z,61.88
2018-10-07T06:17:40.451Z,67.50
2018-10-07T06:18:40.481Z,67.50
2018-10-07T06:19:40.506Z,73.13
2018-10-07T06:20:40.530Z,73.13
2018-10-07T06:21:40.623Z,73.13
2018-10-07T06:22:40.582Z,73.13
2018-10-07T06:23:40.612Z,73.13
2018-10-07T06:24:40.634Z,67.50
2018-10-07T06:25:40.661Z,67.50
2018-10-07T06:26:40.687Z,67.50
2018-10-07T06:27:40.716Z,73.13
2018-10-07T06:28:40.742Z,73.13
2018-10-07T06:29:40.830Z,73.13
2018-10-07T06:30:40.795Z,73.13
2018-10-07T06:31:40.841Z,73.13
2018-10-07T06:32:40.846Z,67.50
2018-10-07T06:33:40.874Z,61.88
2018-10-07T06:34:40.901Z,56.25
2018-10-07T06:35:40.926Z,50.63
2018-10-07T06:36:40.953Z,50.63
2018-10-07T06:37:40.981Z,50.63
2018-10-07T06:38:41.020Z,45.00
2018-10-07T06:39:41.039Z,45.00
2018-10-07T06:40:41.058Z,45.00
2018-10-07T06:41:41.083Z,45.00
2018-10-07T06:42:41.111Z,45.00
2018-10-07T06:43:41.138Z,45.00
2018-10-07T06:44:41.161Z,45.00
2018-10-07T06:45:41.196Z,45.00
2018-10-07T06:46:41.220Z,45.00
2018-10-07T06:47:41.244Z,50.63
2018-10-07T06:48:41.270Z,50.63
2018-10-07T06:49:41.295Z,56.25
2018-10-07T06:50:41.323Z,56.25
2018-10-07T06:51:41.377Z,61.88
2018-10-07T06:52:41.374Z,67.50
2018-10-07T06:53:41.403Z,67.50
2018-10-07T06:54:41.429Z,67.50
2018-10-07T06:55:41.454Z,67.50
2018-10-07T06:56:41.482Z,67.50
2018-10-07T06:57:41.509Z,67.50
2018-10-07T06:58:41.550Z,67.50
2018-10-07T06:59:41.626Z,73.13
2018-10-07T07:00:41.588Z,73.13
2018-10-07T07:01:41.615Z,73.13
2018-10-07T07:02:41.648Z,73.13
2018-10-07T07:03:41.668Z,73.13
2018-10-07T07:04:41.693Z,78.75
2018-10-07T07:05:41.721Z,84.38
2018-10-07T07:06:41.747Z,84.38
2018-10-07T07:07:41.772Z,84.38
2018-10-07T07:08:41.798Z,84.38
2018-10-07T07:09:41.824Z,84.38
2018-10-07T07:10:41.853Z,84.38
2018-10-07T07:11:41.880Z,90.00
2018-10-07T07:12:41.903Z,90.00
2018-10-07T07:13:41.929Z,90.00
2018-10-07T07:14:41.957Z,90.00
2018-10-07T07:15:41.983Z,95.63
2018-10-07T07:16:42.009Z,101.25
2018-10-07T07:17:42.040Z,106.88
2018-10-07T07:18:42.065Z,112.50
2018-10-07T07:19:42.162Z,112.50
2018-10-07T07:20:42.117Z,118.13
2018-10-07T07:21:42.141Z,112.50
2018-10-07T07:22:42.178Z,118.13
2018-10-07T07:23:42.194Z,118.13
2018-10-07T07:24:42.223Z,129.38
2018-10-07T07:25:42.247Z,140.63
2018-10-07T07:26:42.278Z,151.88
2018-10-07T07:27:42.303Z,163.13
2018-10-07T07:28:42.331Z,168.75
2018-10-07T07:29:42.356Z,174.38
2018-10-07T07:30:42.381Z,174.38
2018-10-07T07:31:42.409Z,185.63
2018-10-07T07:32:42.437Z,196.88
2018-10-07T07:33:42.464Z,202.50
2018-10-07T07:34:42.486Z,196.88
2018-10-07T07:35:42.517Z,202.50
2018-10-07T07:36:42.589Z,208.13
2018-10-07T07:37:42.565Z,191.25
2018-10-07T07:38:42.592Z,191.25
2018-10-07T07:39:42.619Z,196.88
2018-10-07T07:40:42.647Z,202.50
2018-10-07T07:41:42.678Z,196.88
2018-10-07T07:42:42.701Z,213.75
2018-10-07T07:43:42.728Z,208.13
2018-10-07T07:44:42.755Z,219.38
2018-10-07T07:45:42.780Z,219.38
2018-10-07T07:46:42.809Z,213.75
2018-10-07T07:47:42.834Z,219.38
2018-10-07T07:48:42.860Z,213.75
2018-10-07T07:49:42.886Z,213.75
2018-10-07T07:50:42.914Z,219.38
2018-10-07T07:51:42.938Z,219.38
2018-10-07T07:52:42.967Z,219.38
2018-10-07T07:53:42.993Z,225.00
2018-10-07T07:54:43.019Z,225.00
2018-10-07T07:55:43.045Z,225.00
2018-10-07T07:56:43.075Z,230.63
2018-10-07T07:57:43.100Z,225.00
2018-10-07T07:58:43.124Z,225.00
2018-10-07T07:59:43.155Z,230.63
2018-10-07T08:00:43.178Z,241.88
2018-10-07T08:01:43.207Z,360.00
2018-10-07T08:02:43.233Z,680.63
2018-10-07T08:03:43.261Z,1158.75
2018-10-07T08:04:43.289Z,1530.00
2018-10-07T08:05:43.312Z,1676.25
2018-10-07T08:06:43.339Z,1715.63
2018-10-07T08:07:43.373Z,1597.50
2018-10-07T08:08:43.666Z,1687.50
2018-10-07T08:09:43.422Z,1743.75
2018-10-07T08:10:43.448Z,1771.88
2018-10-07T08:11:43.476Z,1833.75
2018-10-07T08:12:43.506Z,1743.75
2018-10-07T08:13:43.531Z,1653.75
2018-10-07T08:14:43.564Z,1760.63
2018-10-07T08:15:43.592Z,1760.63
2018-10-07T08:16:43.618Z,1800.00
2018-10-07T08:17:43.704Z,1828.13
2018-10-07T08:18:43.679Z,1805.63
2018-10-07T08:19:46.331Z,1839.38
2018-10-07T08:20:43.737Z,1783.13
2018-10-07T08:21:43.767Z,1091.25
2018-10-07T08:22:43.797Z,292.50
2018-10-07T08:23:43.839Z,292.50
2018-10-07T08:24:43.856Z,579.38
2018-10-07T08:25:43.891Z,506.25
2018-10-07T08:26:43.919Z,225.00
2018-10-07T08:27:43.952Z,753.75
2018-10-07T08:28:43.978Z,1721.25
2018-10-07T08:29:44.038Z,1974.38
2018-10-07T08:30:44.041Z,2013.75
2018-10-07T08:31:44.073Z,2064.38
2018-10-07T08:32:44.103Z,2081.25
2018-10-07T08:33:46.756Z,2019.38
2018-10-07T08:34:47.390Z,1935.00
2018-10-07T08:35:44.193Z,2030.63
2018-10-07T08:36:44.224Z,2126.25
2018-10-07T08:37:44.256Z,2081.25
2018-10-07T08:38:44.284Z,2019.38
2018-10-07T08:39:44.320Z,2126.25
2018-10-07T08:40:44.347Z,2227.50
2018-10-07T08:41:44.387Z,2182.50
2018-10-07T08:42:44.416Z,2143.13
2018-10-07T08:43:44.448Z,2120.63
2018-10-07T08:44:44.485Z,2070.00
2018-10-07T08:45:44.509Z,2199.38
2018-10-07T08:46:44.545Z,2272.50
2018-10-07T08:47:44.579Z,2238.75
2018-10-07T08:48:44.612Z,2238.75
2018-10-07T08:49:44.657Z,2205.00
2018-10-07T08:50:44.679Z,2092.50
2018-10-07T08:51:45.722Z,2176.88
2018-10-07T08:52:44.751Z,2278.13
2018-10-07T08:53:44.781Z,2345.63
2018-10-07T08:54:44.814Z,2323.13
2018-10-07T08:55:44.849Z,2351.25
2018-10-07T08:56:44.885Z,2385.00
2018-10-07T08:57:44.921Z,2373.75
2018-10-07T08:58:44.956Z,2368.13
2018-10-07T08:59:44.989Z,2385.00
2018-10-07T09:00:45.024Z,2396.25
2018-10-07T09:01:45.061Z,2199.38
2018-10-07T09:02:45.094Z,2199.38
2018-10-07T09:03:45.134Z,2396.25
2018-10-07T09:04:45.166Z,2227.50
2018-10-07T09:05:45.202Z,2289.38
2018-10-07T09:06:45.238Z,2401.88
2018-10-07T09:07:45.309Z,2531.25
2018-10-07T09:08:45.317Z,2548.13
2018-10-07T09:09:47.967Z,2458.13
2018-10-07T09:10:45.385Z,2373.75
2018-10-07T09:11:45.416Z,2351.25
2018-10-07T09:12:45.454Z,2199.38
2018-10-07T09:13:45.487Z,2188.13
2018-10-07T09:14:45.616Z,2295.00
2018-10-07T09:15:45.563Z,2345.63
2018-10-07T09:16:45.598Z,2458.13
2018-10-07T09:17:45.635Z,2458.13
2018-10-07T09:18:45.674Z,2401.88
2018-10-07T09:19:45.708Z,2289.38
2018-10-07T09:20:45.771Z,2216.25
2018-10-07T09:21:45.778Z,2497.50
2018-10-07T09:22:45.815Z,2531.25
2018-10-07T09:23:45.853Z,2626.88
2018-10-07T09:24:45.887Z,2598.75
2018-10-07T09:25:45.926Z,2610.00
2018-10-07T09:26:46.047Z,2604.38
2018-10-07T09:27:45.997Z,2587.50
2018-10-07T09:28:46.033Z,2553.75
2018-10-07T09:29:46.072Z,2565.00
2018-10-07T09:30:46.108Z,2565.00
2018-10-07T09:31:46.146Z,2559.38
2018-10-07T09:32:46.208Z,2660.63
2018-10-07T09:33:46.222Z,2621.25
2018-10-07T09:34:46.259Z,2491.88
2018-10-07T09:35:46.294Z,2531.25
2018-10-07T09:36:46.352Z,2520.00
2018-10-07T09:37:46.366Z,2531.25
2018-10-07T09:38:46.404Z,2497.50
2018-10-07T09:39:46.501Z,2593.13
2018-10-07T09:40:50.515Z,2565.00
2018-10-07T09:41:46.514Z,2486.25
2018-10-07T09:42:46.554Z,2604.38
2018-10-07T09:43:46.590Z,2604.38
2018-10-07T09:44:46.628Z,2525.63
2018-10-07T09:45:46.666Z,2542.50
2018-10-07T09:46:46.704Z,2615.63
2018-10-07T09:47:46.740Z,2626.88
2018-10-07T09:48:46.777Z,2649.38
2018-10-07T09:49:46.814Z,2593.13
2018-10-07T09:50:46.850Z,2525.63
2018-10-07T09:51:46.889Z,2576.25
2018-10-07T09:52:46.927Z,2643.75
2018-10-07T09:53:46.963Z,2655.00
2018-10-07T09:54:47.000Z,2621.25
2018-10-07T09:55:47.046Z,2598.75
2018-10-07T09:56:47.072Z,2508.75
2018-10-07T09:57:47.111Z,2531.25
2018-10-07T09:58:47.146Z,2553.75
2018-10-07T09:59:47.184Z,2570.63
2018-10-07T10:00:47.223Z,2587.50
2018-10-07T10:01:47.261Z,2548.13
2018-10-07T10:02:47.298Z,2559.38
2018-10-07T10:03:47.334Z,2553.75
2018-10-07T10:04:47.373Z,2559.38
2018-10-07T10:05:47.410Z,2649.38
2018-10-07T10:06:47.447Z,2565.00
2018-10-07T10:07:47.485Z,2559.38
2018-10-07T10:08:47.522Z,2531.25
2018-10-07T10:09:47.558Z,2463.75
2018-10-07T10:10:47.595Z,2413.13
2018-10-07T10:11:47.637Z,2542.50
2018-10-07T10:12:47.674Z,2604.38
2018-10-07T10:13:47.712Z,2621.25
2018-10-07T10:14:47.755Z,540.00
2018-10-07T10:15:47.786Z,2745.00
2018-10-07T10:16:47.824Z,2536.88
2018-10-07T10:17:47.862Z,2728.13
2018-10-07T10:18:47.897Z,2553.75
2018-10-07T10:19:48.054Z,2356.88
2018-10-07T10:20:47.974Z,2227.50
2018-10-07T10:21:48.013Z,2514.38
2018-10-07T10:22:48.048Z,2638.13
2018-10-07T10:23:48.089Z,2542.50
2018-10-07T10:24:48.126Z,652.50
2018-10-07T10:25:48.162Z,2643.75
2018-10-07T10:26:48.199Z,2643.75
2018-10-07T10:27:48.235Z,686.25
2018-10-07T10:28:48.272Z,2716.88
2018-10-07T10:29:48.310Z,2655.00
2018-10-07T10:30:48.348Z,545.63
2018-10-07T10:31:48.387Z,613.13
2018-10-07T10:32:48.421Z,360.00
2018-10-07T10:33:48.459Z,2407.50
2018-10-07T10:34:48.505Z,2396.25
2018-10-07T10:35:48.535Z,2486.25
2018-10-07T10:36:48.619Z,2396.25
2018-10-07T10:37:48.605Z,2199.38
2018-10-07T10:38:48.647Z,2250.00
2018-10-07T10:39:48.724Z,1648.13
2018-10-07T10:40:48.715Z,2475.00
2018-10-07T10:41:48.755Z,2463.75
2018-10-07T10:42:48.790Z,2531.25
2018-10-07T10:43:48.827Z,2553.75
2018-10-07T10:44:48.860Z,2401.88
2018-10-07T10:45:48.900Z,2328.75
2018-10-07T10:46:48.937Z,2463.75
2018-10-07T10:47:48.971Z,2390.63
2018-10-07T10:48:49.010Z,2452.50
2018-10-07T10:49:49.047Z,2480.63
2018-10-07T10:50:49.082Z,2452.50
2018-10-07T10:51:49.119Z,2565.00
2018-10-07T10:52:49.159Z,2531.25
2018-10-07T10:53:49.192Z,2531.25
2018-10-07T10:54:49.230Z,2469.38
2018-10-07T10:55:49.269Z,2480.63
2018-10-07T10:56:49.310Z,2356.88
2018-10-07T10:57:49.343Z,2210.63
2018-10-07T10:58:49.378Z,2362.50
2018-10-07T10:59:49.418Z,2424.38
2018-10-07T11:00:49.557Z,2362.50
2018-10-07T11:01:49.494Z,2351.25
2018-10-07T11:02:49.532Z,2311.88
2018-10-07T11:03:49.570Z,2255.63
2018-10-07T11:04:49.604Z,2295.00
2018-10-07T11:05:49.640Z,2362.50
2018-10-07T11:06:49.678Z,2368.13
2018-10-07T11:07:49.718Z,2345.63
2018-10-07T11:08:49.753Z,2373.75
2018-10-07T11:09:49.792Z,2413.13
2018-10-07T11:10:49.828Z,2351.25
2018-10-07T11:11:49.868Z,2306.25
2018-10-07T11:12:49.904Z,2300.63
2018-10-07T11:13:50.119Z,2300.63
2018-10-07T11:14:49.979Z,2306.25
2018-10-07T11:15:50.103Z,2328.75
2018-10-07T11:16:50.057Z,2328.75
2018-10-07T11:17:50.098Z,2278.13
2018-10-07T11:18:50.137Z,2272.50
2018-10-07T11:19:50.171Z,2317.50
2018-10-07T11:20:50.208Z,2311.88
2018-10-07T11:21:50.246Z,2255.63
2018-10-07T11:22:50.285Z,2205.00
2018-10-07T11:23:50.320Z,2199.38
2018-10-07T11:24:50.360Z,2171.25
2018-10-07T11:25:50.398Z,2126.25
2018-10-07T11:26:50.433Z,2188.13
2018-10-07T11:27:50.476Z,2227.50
2018-10-07T11:28:50.512Z,2238.75
2018-10-07T11:29:50.550Z,2182.50
2018-10-07T11:30:50.588Z,2199.38
2018-10-07T11:31:50.624Z,2154.38
2018-10-07T11:32:50.668Z,2126.25
2018-10-07T11:33:50.701Z,2126.25
2018-10-07T11:34:50.810Z,2176.88
2018-10-07T11:35:50.778Z,2148.75
2018-10-07T11:36:50.816Z,2131.88
2018-10-07T11:37:50.854Z,2115.00
2018-10-07T11:38:50.890Z,2098.13
2018-10-07T11:39:50.930Z,2182.50
2018-10-07T11:40:51.036Z,2126.25
2018-10-07T11:41:51.005Z,2199.38
2018-10-07T11:42:51.042Z,2160.00
2018-10-07T11:43:51.083Z,2126.25
2018-10-07T11:44:51.118Z,2075.63
2018-10-07T11:45:51.158Z,2098.13
2018-10-07T11:46:51.196Z,2188.13
2018-10-07T11:47:51.236Z,2041.88
2018-10-07T11:48:51.269Z,2064.38
2018-10-07T11:49:51.312Z,2171.25
2018-10-07T11:50:51.346Z,2030.63
2018-10-07T11:51:51.387Z,2036.25
2018-10-07T11:52:51.437Z,2081.25
2018-10-07T11:53:51.462Z,2058.75
2018-10-07T11:54:51.502Z,2030.63
2018-10-07T11:55:51.539Z,2025.00
2018-10-07T11:56:51.581Z,2070.00
2018-10-07T11:57:51.613Z,1946.25
2018-10-07T11:58:51.652Z,1946.25
2018-10-07T11:59:51.688Z,1985.63
2018-10-07T12:00:51.725Z,2058.75
2018-10-07T12:01:51.765Z,1906.88
2018-10-07T12:02:51.878Z,1861.88
2018-10-07T12:03:51.841Z,1895.63
2018-10-07T12:04:51.876Z,1890.00
2018-10-07T12:05:51.914Z,1968.75
2018-10-07T12:06:51.953Z,1935.00
2018-10-07T12:07:51.994Z,1906.88
2018-10-07T12:08:52.030Z,1912.50
2018-10-07T12:09:52.067Z,1923.75
2018-10-07T12:10:52.105Z,1895.63
2018-10-07T12:11:52.142Z,1867.50
2018-10-07T12:12:52.181Z,1901.25
2018-10-07T12:13:52.220Z,1929.38
2018-10-07T12:14:52.257Z,1963.13
2018-10-07T12:15:52.292Z,1918.13
2018-10-07T12:16:52.330Z,1890.00
2018-10-07T12:17:52.369Z,1805.63
2018-10-07T12:18:52.405Z,1861.88
2018-10-07T12:19:52.442Z,1816.88
2018-10-07T12:20:52.484Z,1771.88
2018-10-07T12:21:52.517Z,1755.00
2018-10-07T12:22:52.564Z,1771.88
2018-10-07T12:23:52.593Z,1800.00
2018-10-07T12:24:52.631Z,1839.38
2018-10-07T12:25:52.669Z,1822.50
2018-10-07T12:26:52.705Z,1816.88
2018-10-07T12:27:52.746Z,1816.88
2018-10-07T12:28:52.818Z,1805.63
2018-10-07T12:29:52.816Z,1794.38
2018-10-07T12:30:52.854Z,1777.50
2018-10-07T12:31:52.893Z,1738.13
2018-10-07T12:32:52.928Z,1749.38
2018-10-07T12:33:52.966Z,1591.88
2018-10-07T12:34:53.003Z,1698.75
2018-10-07T12:35:53.040Z,1743.75
2018-10-07T12:36:53.077Z,1777.50
2018-10-07T12:37:53.116Z,1839.38
2018-10-07T12:38:53.152Z,1766.25
2018-10-07T12:39:53.191Z,1766.25
2018-10-07T12:40:53.225Z,1738.13
2018-10-07T12:41:53.263Z,1659.38
2018-10-07T12:42:53.300Z,1760.63
2018-10-07T12:43:53.337Z,1715.63
2018-10-07T12:44:53.375Z,1569.38
2018-10-07T12:45:53.410Z,1580.63